createdAt,value
2019-01-27T00:01:32.388Z,48.80
2019-01-27T00:04:05.113Z,48.70
2019-01-27T00:06:36.363Z,48.80
2019-01-27T00:09:11.750Z,48.80
2019-01-27T00:11:42.754Z,48.80
2019-01-27T00:14:13.732Z,48.70
2019-01-27T00:16:44.866Z,48.70
2019-01-27T00:19:15.937Z,48.80
2019-01-27T00:21:47.029Z,48.70
2019-01-27T00:24:18.225Z,48.70
2019-01-27T00:26:48.992Z,48.70
2019-01-27T00:29:20.000Z,48.80
2019-01-27T00:31:50.992Z,48.90
2019-01-27T00:34:22.068Z,48.90
2019-01-27T00:36:53.058Z,48.90
2019-01-27T00:39:24.035Z,49.00
2019-01-27T00:41:54.877Z,49.10
2019-01-27T00:44:26.076Z,49.00
2019-01-27T00:46:57.182Z,49.10
2019-01-27T00:49:28.235Z,49.00
2019-01-27T00:51:59.237Z,49.00
2019-01-27T00:54:30.077Z,49.00
2019-01-27T00:57:01.058Z,49.00
2019-01-27T00:59:31.856Z,48.90
2019-01-27T01:02:02.816Z,49.00
2019-01-27T01:04:33.870Z,49.00
2019-01-27T01:07:04.973Z,48.80
2019-01-27T01:09:36.052Z,48.90
2019-01-27T01:12:07.171Z,48.80
2019-01-27T01:14:38.437Z,48.80
2019-01-27T01:17:09.589Z,48.90
2019-01-27T01:19:40.595Z,48.90
2019-01-27T01:22:11.541Z,48.90
2019-01-27T01:24:42.541Z,48.90
2019-01-27T01:27:13.731Z,48.90
2019-01-27T01:29:44.983Z,48.80
2019-01-27T01:32:15.991Z,48.90
2019-01-27T01:34:47.080Z,49.00
2019-01-27T01:37:18.201Z,48.90
2019-01-27T01:39:49.288Z,49.00
2019-01-27T01:42:20.561Z,49.00
2019-01-27T01:44:51.655Z,49.00
2019-01-27T01:47:22.680Z,49.00
2019-01-27T01:49:53.752Z,49.10
2019-01-27T01:52:24.961Z,49.10
2019-01-27T01:54:56.020Z,49.20
2019-01-27T01:57:27.284Z,49.30
2019-01-27T02:00:00.819Z,49.10
2019-01-27T02:02:31.931Z,49.20
2019-01-27T02:05:02.924Z,49.20
2019-01-27T02:07:34.006Z,49.30
2019-01-27T02:10:05.559Z,49.30
2019-01-27T02:12:36.915Z,48.60
2019-01-27T02:15:34.707Z,49.20
2019-01-27T02:18:05.503Z,49.40
2019-01-27T02:20:36.528Z,49.30
2019-01-27T02:23:07.545Z,49.40
2019-01-27T02:25:38.686Z,50.00
2019-01-27T02:28:09.792Z,49.40
2019-01-27T02:30:41.038Z,49.40
2019-01-27T02:33:12.289Z,49.40
2019-01-27T02:35:43.165Z,49.40
2019-01-27T02:38:14.205Z,49.80
2019-01-27T02:40:45.373Z,49.30
2019-01-27T02:43:16.476Z,49.30
2019-01-27T02:45:47.259Z,49.40
2019-01-27T02:48:18.534Z,49.50
2019-01-27T02:50:49.778Z,49.30
2019-01-27T02:53:20.930Z,49.30
2019-01-27T02:55:51.961Z,49.20
2019-01-27T02:58:23.113Z,49.10
2019-01-27T03:00:54.163Z,49.10
2019-01-27T03:03:25.296Z,49.20
2019-01-27T03:06:13.896Z,49.10
2019-01-27T03:08:50.989Z,49.20
2019-01-27T03:11:22.023Z,49.20
2019-01-27T03:13:53.131Z,49.20
2019-01-27T03:16:24.370Z,49.30
2019-01-27T03:18:55.551Z,49.30
2019-01-27T03:21:26.659Z,49.30
2019-01-27T03:23:57.497Z,49.30
2019-01-27T03:26:28.583Z,49.40
2019-01-27T03:28:59.646Z,49.30
2019-01-27T03:31:30.575Z,49.30
2019-01-27T03:34:01.778Z,49.40
2019-01-27T03:36:32.878Z,49.40
2019-01-27T03:39:05.339Z,49.30
2019-01-27T03:41:36.279Z,49.50
2019-01-27T03:44:07.831Z,49.30
2019-01-27T03:46:39.205Z,49.30
2019-01-27T03:49:10.484Z,49.30
2019-01-27T03:51:41.522Z,49.30
2019-01-27T03:54:12.588Z,49.30
2019-01-27T03:56:43.708Z,49.40
2019-01-27T03:59:14.933Z,49.30
2019-01-27T04:01:45.885Z,49.30
2019-01-27T04:04:16.896Z,49.30
2019-01-27T04:06:48.098Z,49.30
2019-01-27T04:09:19.345Z,49.20
2019-01-27T04:11:50.283Z,49.20
2019-01-27T04:14:21.528Z,49.30
2019-01-27T04:16:52.579Z,49.20
2019-01-27T04:19:23.846Z,49.40
2019-01-27T04:21:54.770Z,49.20
2019-01-27T04:24:25.860Z,49.20
2019-01-27T04:26:56.838Z,49.20
2019-01-27T04:29:27.876Z,49.20
2019-01-27T04:31:58.941Z,49.20
2019-01-27T04:34:29.905Z,49.20
2019-01-27T04:37:00.802Z,49.20
2019-01-27T04:39:31.818Z,49.20
2019-01-27T04:42:02.832Z,49.10
2019-01-27T04:44:33.888Z,49.10
2019-01-27T04:47:04.950Z,49.20
2019-01-27T04:49:35.898Z,49.10
2019-01-27T04:52:07.017Z,49.20
2019-01-27T04:54:38.117Z,49.10
2019-01-27T04:57:09.628Z,49.20
2019-01-27T04:59:40.769Z,49.20
2019-01-27T05:02:11.964Z,49.10
2019-01-27T05:04:43.444Z,49.20
2019-01-27T05:07:14.805Z,49.30
2019-01-27T05:09:45.863Z,49.30
2019-01-27T05:12:16.983Z,49.20
2019-01-27T05:14:48.027Z,49.20
2019-01-27T05:17:19.167Z,49.20
2019-01-27T05:19:50.387Z,49.20
2019-01-27T05:22:21.266Z,49.50
2019-01-27T05:24:52.364Z,49.10
2019-01-27T05:27:23.295Z,49.00
2019-01-27T05:29:54.380Z,49.10
2019-01-27T05:32:25.353Z,49.00
2019-01-27T05:34:56.241Z,49.00
2019-01-27T05:37:27.169Z,49.00
2019-01-27T05:40:00.414Z,49.10
2019-01-27T05:42:31.115Z,49.00
2019-01-27T05:45:02.235Z,49.00
2019-01-27T05:47:33.190Z,49.00
2019-01-27T05:50:04.290Z,49.00
2019-01-27T05:52:35.533Z,49.10
2019-01-27T05:55:06.859Z,49.10
2019-01-27T05:57:37.858Z,49.10
2019-01-27T06:00:14.370Z,49.10
2019-01-27T06:02:45.487Z,49.10
2019-01-27T06:05:16.802Z,49.10
2019-01-27T06:07:47.862Z,49.10
2019-01-27T06:10:18.931Z,49.20
2019-01-27T06:12:50.060Z,49.20
2019-01-27T06:15:21.172Z,49.10
2019-01-27T06:17:52.380Z,49.00
2019-01-27T06:20:23.514Z,49.10
2019-01-27T06:22:54.604Z,49.00
2019-01-27T06:25:26.157Z,49.10
2019-01-27T06:27:57.436Z,49.10
2019-01-27T06:30:28.526Z,49.10
2019-01-27T06:33:05.353Z,49.00
2019-01-27T06:35:36.802Z,48.90
2019-01-27T06:38:08.115Z,49.00
2019-01-27T06:40:39.173Z,49.00
2019-01-27T06:43:10.326Z,49.00
2019-01-27T06:45:41.326Z,48.90
2019-01-27T06:48:12.394Z,49.00
2019-01-27T06:50:43.511Z,49.00
2019-01-27T06:53:14.478Z,48.90
2019-01-27T06:55:45.483Z,48.80
2019-01-27T06:58:16.436Z,49.00
2019-01-27T07:01:21.325Z,49.00
2019-01-27T07:04:23.395Z,48.90
2019-01-27T07:07:13.470Z,49.00
2019-01-27T07:10:06.426Z,48.90
2019-01-27T07:12:56.835Z,49.00
2019-01-27T07:15:40.884Z,49.10
2019-01-27T07:18:34.131Z,49.00
2019-01-27T07:21:26.827Z,49.00
2019-01-27T07:24:15.760Z,49.10
2019-01-27T07:27:03.800Z,49.10
2019-01-27T07:29:55.224Z,49.00
2019-01-27T07:32:38.755Z,49.20
2019-01-27T07:35:21.980Z,49.50
2019-01-27T07:38:11.971Z,54.80
2019-01-27T07:41:20.499Z,51.60
2019-01-27T07:44:01.559Z,50.90
2019-01-27T07:46:40.607Z,51.40
2019-01-27T07:49:30.012Z,50.70
2019-01-27T07:52:28.963Z,50.20
2019-01-27T07:55:15.883Z,50.10
2019-01-27T07:58:00.864Z,49.20
2019-01-27T08:00:48.287Z,48.70
2019-01-27T08:03:34.579Z,48.00
2019-01-27T08:06:17.602Z,46.90
2019-01-27T08:09:10.472Z,46.20
2019-01-27T08:12:00.351Z,46.00
2019-01-27T08:14:43.072Z,46.00
2019-01-27T08:17:30.791Z,46.10
2019-01-27T08:20:20.808Z,45.10
2019-01-27T08:23:08.015Z,43.30
2019-01-27T08:26:03.833Z,44.00
2019-01-27T08:28:48.893Z,44.50
2019-01-27T08:31:37.661Z,44.90
2019-01-27T08:34:26.311Z,44.80
2019-01-27T08:37:14.780Z,43.40
2019-01-27T08:40:03.848Z,43.00
2019-01-27T08:43:06.600Z,41.80
2019-01-27T08:45:50.970Z,42.40
2019-01-27T08:48:21.910Z,42.50
2019-01-27T08:50:52.993Z,42.90
2019-01-27T08:53:24.231Z,43.40
2019-01-27T08:58:28.315Z,43.80
2019-01-27T09:01:06.588Z,44.80
2019-01-27T09:03:48.140Z,44.90
2019-01-27T09:06:50.221Z,44.90
2019-01-27T09:09:43.368Z,45.10
2019-01-27T09:12:31.953Z,45.30
2019-01-27T09:15:31.024Z,45.50
2019-01-27T09:18:20.914Z,45.60
2019-01-27T09:21:15.609Z,45.90
2019-01-27T09:24:08.266Z,45.90
2019-01-27T09:26:50.267Z,46.00
2019-01-27T09:29:33.811Z,46.20
2019-01-27T09:32:33.221Z,46.40
2019-01-27T09:35:18.485Z,46.40
2019-01-27T09:38:14.636Z,46.70
2019-01-27T09:41:04.801Z,46.60
2019-01-27T09:43:59.885Z,46.90
2019-01-27T09:46:55.617Z,47.00
2019-01-27T09:49:44.315Z,47.10
2019-01-27T09:52:49.658Z,47.10
2019-01-27T09:55:37.980Z,47.30
2019-01-27T09:58:27.150Z,47.60
2019-01-27T10:01:20.005Z,47.80
2019-01-27T10:04:09.170Z,48.10
2019-01-27T10:06:59.261Z,48.00
2019-01-27T10:09:48.202Z,48.10
2019-01-27T10:12:44.231Z,47.80
2019-01-27T10:15:40.724Z,47.40
2019-01-27T10:18:29.901Z,47.30
2019-01-27T10:21:19.039Z,47.70
2019-01-27T10:24:00.125Z,48.20
2019-01-27T10:26:50.735Z,49.10
2019-01-27T10:29:39.900Z,48.00
2019-01-27T10:32:28.964Z,48.20
2019-01-27T10:35:16.591Z,48.30
2019-01-27T10:38:00.646Z,48.40
2019-01-27T10:40:45.766Z,48.30
2019-01-27T10:43:22.290Z,48.30
2019-01-27T10:46:14.976Z,48.40
2019-01-27T10:48:55.128Z,48.50
2019-01-27T10:51:38.992Z,48.80
2019-01-27T10:54:27.228Z,49.00
2019-01-27T10:57:06.468Z,49.20
2019-01-27T10:59:45.887Z,48.90
2019-01-27T11:02:39.398Z,49.80
2019-01-27T11:05:30.829Z,49.80
2019-01-27T11:08:16.927Z,51.10
2019-01-27T11:11:24.738Z,50.60
2019-01-27T11:14:18.731Z,50.50
2019-01-27T11:17:14.890Z,50.60
2019-01-27T11:20:12.226Z,50.20
2019-01-27T11:23:04.015Z,51.20
2019-01-27T11:26:00.770Z,53.00
2019-01-27T11:29:00.986Z,52.30
2019-01-27T11:32:04.383Z,52.40
2019-01-27T11:34:57.278Z,64.00
2019-01-27T11:37:57.464Z,57.10
2019-01-27T11:40:50.943Z,54.90
2019-01-27T11:43:51.535Z,56.30
2019-01-27T11:46:44.281Z,60.30
2019-01-27T11:49:27.349Z,58.50
2019-01-27T11:52:03.967Z,57.40
2019-01-27T11:54:35.579Z,56.20
2019-01-27T11:57:06.857Z,54.70
2019-01-27T11:59:39.076Z,57.70
2019-01-27T12:02:10.280Z,62.40
2019-01-27T12:04:41.365Z,62.40
2019-01-27T12:07:13.204Z,62.10
2019-01-27T12:09:44.246Z,61.20
2019-01-27T12:12:15.428Z,64.30
2019-01-27T12:14:46.419Z,65.20
2019-01-27T12:17:17.502Z,71.40
2019-01-27T12:19:48.271Z,71.90
2019-01-27T12:22:19.331Z,60.70
2019-01-27T12:24:50.374Z,59.80
2019-01-27T12:27:21.517Z,56.30
2019-01-27T12:29:52.635Z,54.50
2019-01-27T12:32:23.839Z,53.30
2019-01-27T12:34:54.778Z,52.70
2019-01-27T12:37:26.528Z,51.60
2019-01-27T12:39:57.532Z,51.50
2019-01-27T12:42:29.072Z,52.00
2019-01-27T12:45:00.306Z,51.40
2019-01-27T12:47:31.386Z,51.40
2019-01-27T12:50:02.515Z,51.40
2019-01-27T12:52:33.553Z,52.30
2019-01-27T12:55:04.362Z,52.80
2019-01-27T12:57:35.395Z,52.50
2019-01-27T13:00:36.533Z,52.30
2019-01-27T13:03:07.683Z,51.90
2019-01-27T13:05:38.788Z,51.90
2019-01-27T13:08:10.224Z,49.50
2019-01-27T13:10:41.086Z,50.00
2019-01-27T13:13:12.235Z,50.60
2019-01-27T13:15:43.096Z,50.50
2019-01-27T13:18:14.096Z,50.60
2019-01-27T13:20:45.357Z,50.20
2019-01-27T13:23:16.248Z,50.10
2019-01-27T13:25:47.790Z,49.00
2019-01-27T13:28:18.822Z,47.90
2019-01-27T13:30:49.952Z,48.10
2019-01-27T13:33:20.955Z,47.50
2019-01-27T13:35:51.765Z,47.00
2019-01-27T13:38:22.637Z,45.90
2019-01-27T13:40:54.023Z,44.90
2019-01-27T13:43:25.209Z,46.40
2019-01-27T13:45:56.327Z,57.20
2019-01-27T13:48:27.541Z,55.90
2019-01-27T13:50:58.674Z,49.70
2019-01-27T13:53:29.679Z,49.80
2019-01-27T13:56:00.942Z,49.20
2019-01-27T13:58:32.043Z,48.70
2019-01-27T14:01:03.116Z,50.10
2019-01-27T14:03:34.263Z,50.70
2019-01-27T14:06:05.182Z,52.40
2019-01-27T14:08:36.387Z,60.10
2019-01-27T14:11:07.401Z,56.00
2019-01-27T14:13:38.571Z,54.40
2019-01-27T14:16:09.905Z,54.60
2019-01-27T14:18:41.341Z,53.60
2019-01-27T14:21:16.507Z,53.10
2019-01-27T14:23:45.063Z,52.60
2019-01-27T14:26:16.288Z,51.60
2019-01-27T14:28:48.078Z,51.60
2019-01-27T14:31:19.594Z,51.70
2019-01-27T14:33:50.835Z,51.30
2019-01-27T14:36:21.893Z,51.40
2019-01-27T14:38:52.911Z,51.00
2019-01-27T14:41:24.937Z,50.90
2019-01-27T14:43:56.276Z,51.00
2019-01-27T14:46:27.528Z,51.60
2019-01-27T14:48:59.178Z,51.40
2019-01-27T14:51:30.619Z,51.50
2019-01-27T14:54:01.928Z,51.50
2019-01-27T14:56:33.103Z,51.60
2019-01-27T14:59:04.496Z,51.20
2019-01-27T15:01:35.942Z,50.60
2019-01-27T15:04:07.116Z,50.10
2019-01-27T15:06:38.261Z,50.60
2019-01-27T15:09:11.857Z,50.70
2019-01-27T15:11:43.388Z,50.60
2019-01-27T15:14:14.873Z,51.30
2019-01-27T15:16:45.844Z,50.20
2019-01-27T15:19:16.817Z,50.80
2019-01-27T15:21:48.609Z,50.80
2019-01-27T15:24:19.720Z,51.00
2019-01-27T15:26:53.197Z,51.10
2019-01-27T15:29:24.423Z,51.90
2019-01-27T15:31:55.381Z,51.80
2019-01-27T15:34:26.509Z,52.20
2019-01-27T15:36:58.800Z,50.40
2019-01-27T15:39:30.551Z,50.20
2019-01-27T15:42:02.712Z,50.20
2019-01-27T15:44:34.092Z,50.10
2019-01-27T15:47:06.102Z,50.20
2019-01-27T15:49:37.771Z,51.20
2019-01-27T15:52:09.701Z,50.90
2019-01-27T15:54:43.142Z,51.10
2019-01-27T15:57:15.942Z,51.50
2019-01-27T15:59:47.006Z,51.30
2019-01-27T16:02:18.159Z,52.00
2019-01-27T16:04:49.127Z,51.50
2019-01-27T16:07:20.368Z,51.10
2019-01-27T16:09:51.687Z,50.90
2019-01-27T16:12:22.752Z,51.20
2019-01-27T16:14:53.755Z,51.50
2019-01-27T16:17:24.906Z,51.60
2019-01-27T16:19:55.806Z,51.10
2019-01-27T16:22:27.018Z,51.30
2019-01-27T16:24:58.316Z,51.20
2019-01-27T16:27:29.858Z,51.40
2019-01-27T16:30:18.411Z,51.30
2019-01-27T16:32:58.353Z,51.40
2019-01-27T16:35:29.612Z,51.70
2019-01-27T16:38:00.872Z,51.90
2019-01-27T16:40:31.945Z,51.90
2019-01-27T16:43:02.946Z,52.10
2019-01-27T16:45:34.179Z,52.20
2019-01-27T16:48:07.230Z,52.00
2019-01-27T16:50:38.562Z,51.70
2019-01-27T16:53:09.749Z,51.20
2019-01-27T16:55:40.957Z,51.30
2019-01-27T16:58:12.057Z,51.10
2019-01-27T17:00:43.225Z,51.10
2019-01-27T17:03:14.462Z,51.80
2019-01-27T17:05:45.571Z,51.70
2019-01-27T17:08:16.584Z,51.90
2019-01-27T17:10:48.299Z,51.90
2019-01-27T17:13:21.160Z,52.00
2019-01-27T17:15:52.821Z,52.00
2019-01-27T17:18:24.847Z,52.20
2019-01-27T17:20:56.722Z,52.20
2019-01-27T17:23:27.787Z,52.10
2019-01-27T17:26:00.805Z,52.10
2019-01-27T17:28:32.601Z,52.10
2019-01-27T17:31:04.193Z,51.90
2019-01-27T17:33:35.816Z,51.70
2019-01-27T17:36:08.731Z,51.70
2019-01-27T17:38:40.770Z,51.60
2019-01-27T17:41:12.584Z,51.10
2019-01-27T17:43:44.350Z,50.90
2019-01-27T17:46:16.372Z,50.90
2019-01-27T17:48:48.428Z,50.70
2019-01-27T17:51:19.536Z,50.90
2019-01-27T17:53:57.408Z,51.10
2019-01-27T17:56:28.619Z,51.40
2019-01-27T17:59:18.688Z,51.60
2019-01-27T18:02:11.858Z,51.80
2019-01-27T18:05:10.753Z,51.90
2019-01-27T18:07:58.914Z,52.00
2019-01-27T18:10:53.069Z,52.00
2019-01-27T18:13:44.776Z,51.70
2019-01-27T18:16:17.526Z,51.50
2019-01-27T18:18:49.444Z,52.00
2019-01-27T18:21:20.816Z,52.10
2019-01-27T18:23:52.004Z,52.10
2019-01-27T18:26:23.045Z,52.00
2019-01-27T18:28:54.262Z,52.10
2019-01-27T18:31:25.527Z,52.20
2019-01-27T18:33:57.114Z,51.50
2019-01-27T18:36:28.475Z,51.80
2019-01-27T18:38:59.655Z,54.70
2019-01-27T18:41:30.856Z,53.10
2019-01-27T18:44:02.089Z,53.70
2019-01-27T18:46:33.475Z,53.40
2019-01-27T18:49:04.545Z,57.20
2019-01-27T18:51:35.821Z,55.70
2019-01-27T18:54:31.747Z,56.20
2019-01-27T18:57:17.147Z,55.30
2019-01-27T19:00:05.882Z,55.10
2019-01-27T19:02:44.510Z,53.70
2019-01-27T19:05:37.773Z,52.90
2019-01-27T19:08:32.574Z,52.70
2019-01-27T19:11:22.642Z,52.70
2019-01-27T19:14:27.780Z,52.80
2019-01-27T19:17:17.777Z,52.70
2019-01-27T19:20:17.244Z,52.50
2019-01-27T19:23:06.543Z,52.70
2019-01-27T19:26:00.829Z,52.60
2019-01-27T19:29:05.882Z,52.60
2019-01-27T19:31:56.079Z,52.80
2019-01-27T19:34:39.812Z,52.30
2019-01-27T19:37:18.109Z,52.10
2019-01-27T19:40:01.804Z,52.00
2019-01-27T19:43:00.538Z,52.00
2019-01-27T19:45:56.367Z,52.00
2019-01-27T19:48:40.504Z,51.90
2019-01-27T19:51:33.568Z,51.90
2019-01-27T19:54:35.843Z,51.90
2019-01-27T19:57:19.176Z,51.90
2019-01-27T19:59:57.083Z,51.80
2019-01-27T20:02:41.749Z,51.80
2019-01-27T20:05:40.839Z,51.80
2019-01-27T20:08:37.969Z,52.40
2019-01-27T20:11:21.214Z,52.40
2019-01-27T20:14:01.252Z,51.90
2019-01-27T20:16:49.669Z,51.90
2019-01-27T20:19:37.261Z,51.90
2019-01-27T20:22:24.359Z,52.00
2019-01-27T20:25:07.307Z,51.60
2019-01-27T20:27:57.477Z,51.60
2019-01-27T20:31:02.705Z,51.60
2019-01-27T20:34:07.745Z,51.40
2019-01-27T20:37:05.115Z,51.40
2019-01-27T20:39:52.452Z,51.50
2019-01-27T20:42:45.579Z,51.60
2019-01-27T20:45:38.123Z,52.30
2019-01-27T20:48:20.253Z,52.00
2019-01-27T20:51:28.570Z,57.80
2019-01-27T20:54:21.605Z,57.60
2019-01-27T20:57:14.143Z,56.20
2019-01-27T20:59:52.669Z,55.70
2019-01-27T21:02:45.332Z,55.40
2019-01-27T21:05:29.157Z,54.40
2019-01-27T21:08:17.795Z,53.50
2019-01-27T21:11:13.628Z,53.70
2019-01-27T21:14:09.642Z,53.40
2019-01-27T21:16:58.521Z,53.70
2019-01-27T21:19:34.150Z,53.80
2019-01-27T21:22:05.263Z,53.70
2019-01-27T21:24:36.214Z,53.60
2019-01-27T21:27:07.290Z,53.50
2019-01-27T21:29:38.388Z,53.50
2019-01-27T21:32:09.341Z,53.40
2019-01-27T21:34:40.565Z,53.40
2019-01-27T21:37:11.755Z,53.30
2019-01-27T21:39:43.100Z,53.30
2019-01-27T21:42:14.166Z,53.30
2019-01-27T21:44:45.291Z,53.20
2019-01-27T21:47:16.312Z,53.20
2019-01-27T21:49:47.662Z,53.20
2019-01-27T21:52:19.651Z,53.10
2019-01-27T21:54:51.212Z,53.20
2019-01-27T21:57:22.321Z,53.20
2019-01-27T21:59:53.345Z,53.20
2019-01-27T22:02:24.523Z,53.20
2019-01-27T22:04:55.535Z,53.30
2019-01-27T22:07:26.731Z,53.20
2019-01-27T22:09:58.196Z,53.20
2019-01-27T22:12:29.830Z,53.00
2019-01-27T22:15:01.820Z,53.00
2019-01-27T22:17:33.538Z,53.00
2019-01-27T22:20:06.063Z,52.90
2019-01-27T22:22:37.951Z,52.90
2019-01-27T22:25:11.012Z,53.30
2019-01-27T22:27:44.005Z,52.20
2019-01-27T22:30:22.575Z,52.40
2019-01-27T22:32:55.343Z,52.10
2019-01-27T22:35:27.536Z,51.90
2019-01-27T22:37:59.526Z,51.90
2019-01-27T22:40:31.946Z,52.10
2019-01-27T22:43:04.402Z,52.50
2019-01-27T22:45:36.834Z,52.70
2019-01-27T22:48:09.119Z,52.90
2019-01-27T22:50:44.088Z,53.00
2019-01-27T22:53:16.484Z,53.00
2019-01-27T22:55:48.397Z,53.00
2019-01-27T22:58:20.297Z,53.00
2019-01-27T23:01:06.853Z,52.90
2019-01-27T23:03:50.158Z,52.90
2019-01-27T23:06:23.234Z,52.90
2019-01-27T23:08:55.769Z,52.80
2019-01-27T23:11:29.787Z,52.80
2019-01-27T23:14:01.073Z,52.70
2019-01-27T23:16:32.228Z,52.50
2019-01-27T23:19:02.995Z,52.30
2019-01-27T23:21:34.104Z,52.20
2019-01-27T23:24:05.080Z,52.00
2019-01-27T23:26:36.315Z,51.90
2019-01-27T23:29:07.438Z,51.80
2019-01-27T23:31:38.347Z,51.90
2019-01-27T23:34:09.452Z,51.80
2019-01-27T23:36:40.318Z,51.90
2019-01-27T23:39:11.810Z,52.00
2019-01-27T23:41:42.969Z,52.20
2019-01-27T23:44:14.213Z,52.30
2019-01-27T23:46:45.497Z,52.30
2019-01-27T23:49:16.578Z,52.00
2019-01-27T23:51:47.622Z,55.60
2019-01-27T23:54:18.855Z,54.60
2019-01-27T23:56:50.548Z,53.40
2019-01-27T23:59:22.339Z,52.90
